sensor_id;sensor_type;location;lat;lon;timestamp;pressure;altitude;pressure_sealevel;temperature;humidity
75247;BME280;63844;50.042;19.224;2024-01-10T00:00:54;100812.23;;;-15.42;88.61
75247;BME280;63844;50.042;19.224;2024-01-10T00:02:51;100813.98;;;-15.42;88.27
75247;BME280;63844;50.042;19.224;2024-01-10T00:04:29;100808.07;;;-15.41;88.94
75247;BME280;63844;50.042;19.224;2024-01-10T00:06:05;100807.39;;;-15.42;88.69
75247;BME280;63844;50.042;19.224;2024-01-10T00:07:42;100802.52;;;-15.43;88.44
75247;BME280;63844;50.042;19.224;2024-01-10T00:09:18;100801.15;;;-15.41;88.03
75247;BME280;63844;50.042;19.224;2024-01-10T00:10:55;100797.27;;;-15.40;88.02
75247;BME280;63844;50.042;19.224;2024-01-10T00:12:31;100800.91;;;-15.39;88.35
75247;BME280;63844;50.042;19.224;2024-01-10T00:14:12;100800.45;;;-15.38;88.20
75247;BME280;63844;50.042;19.224;2024-01-10T00:15:49;100796.11;;;-15.37;87.54
75247;BME280;63844;50.042;19.224;2024-01-10T00:17:25;100790.73;;;-15.34;88.17
75247;BME280;63844;50.042;19.224;2024-01-10T00:19:01;100786.73;;;-15.33;88.22
75247;BME280;63844;50.042;19.224;2024-01-10T00:20:38;100790.11;;;-15.33;88.60
75247;BME280;63844;50.042;19.224;2024-01-10T00:22:14;100791.87;;;-15.35;88.48
75247;BME280;63844;50.042;19.224;2024-01-10T00:23:51;100790.91;;;-15.34;88.99
75247;BME280;63844;50.042;19.224;2024-01-10T00:25:27;100787.73;;;-15.33;88.74
75247;BME280;63844;50.042;19.224;2024-01-10T00:27:04;100784.14;;;-15.31;88.18
75247;BME280;63844;50.042;19.224;2024-01-10T00:28:41;100780.80;;;-15.27;88.33
75247;BME280;63844;50.042;19.224;2024-01-10T00:30:18;100784.73;;;-15.27;88.27
75247;BME280;63844;50.042;19.224;2024-01-10T00:31:54;100779.27;;;-15.25;88.18
75247;BME280;63844;50.042;19.224;2024-01-10T00:33:35;100779.05;;;-15.28;88.45
75247;BME280;63844;50.042;19.224;2024-01-10T00:35:11;100777.04;;;-15.28;88.42
75247;BME280;63844;50.042;19.224;2024-01-10T00:36:48;100772.11;;;-15.28;89.34
75247;BME280;63844;50.042;19.224;2024-01-10T00:38:24;100772.38;;;-15.29;89.24
75247;BME280;63844;50.042;19.224;2024-01-10T00:40:01;100771.14;;;-15.29;88.96
75247;BME280;63844;50.042;19.224;2024-01-10T00:41:38;100773.59;;;-15.29;89.00
75247;BME280;63844;50.042;19.224;2024-01-10T00:43:14;100773.11;;;-15.25;88.98
75247;BME280;63844;50.042;19.224;2024-01-10T00:44:50;100772.07;;;-15.23;89.40
75247;BME280;63844;50.042;19.224;2024-01-10T00:46:27;100777.58;;;-15.20;89.10
75247;BME280;63844;50.042;19.224;2024-01-10T00:48:03;100775.63;;;-15.16;88.48
75247;BME280;63844;50.042;19.224;2024-01-10T00:49:40;100776.09;;;-15.17;87.84
75247;BME280;63844;50.042;19.224;2024-01-10T00:51:16;100775.46;;;-15.16;88.09
75247;BME280;63844;50.042;19.224;2024-01-10T00:52:53;100774.58;;;-15.19;88.88
75247;BME280;63844;50.042;19.224;2024-01-10T00:54:30;100772.06;;;-15.21;89.22
75247;BME280;63844;50.042;19.224;2024-01-10T00:56:06;100773.37;;;-15.22;89.47
75247;BME280;63844;50.042;19.224;2024-01-10T00:57:43;100775.77;;;-15.24;89.46
75247;BME280;63844;50.042;19.224;2024-01-10T00:59:19;100781.10;;;-15.28;89.67
75247;BME280;63844;50.042;19.224;2024-01-10T01:00:56;100781.69;;;-15.32;89.36
75247;BME280;63844;50.042;19.224;2024-01-10T01:02:32;100782.36;;;-15.34;89.03
75247;BME280;63844;50.042;19.224;2024-01-10T01:04:09;100786.14;;;-15.34;88.83
75247;BME280;63844;50.042;19.224;2024-01-10T01:05:45;100785.41;;;-15.37;89.12
75247;BME280;63844;50.042;19.224;2024-01-10T01:07:22;100786.59;;;-15.40;89.57
75247;BME280;63844;50.042;19.224;2024-01-10T01:08:58;100786.23;;;-15.40;88.85
75247;BME280;63844;50.042;19.224;2024-01-10T01:10:35;100790.09;;;-15.39;88.63
75247;BME280;63844;50.042;19.224;2024-01-10T01:12:11;100788.09;;;-15.38;88.53
75247;BME280;63844;50.042;19.224;2024-01-10T01:13:48;100790.86;;;-15.40;88.78
75247;BME280;63844;50.042;19.224;2024-01-10T01:15:24;100790.71;;;-15.42;89.21
75247;BME280;63844;50.042;19.224;2024-01-10T01:17:01;100792.27;;;-15.42;88.91
75247;BME280;63844;50.042;19.224;2024-01-10T01:18:37;100794.89;;;-15.40;89.04
75247;BME280;63844;50.042;19.224;2024-01-10T01:20:14;100787.50;;;-15.39;89.17
75247;BME280;63844;50.042;19.224;2024-01-10T01:21:50;100785.43;;;-15.40;89.13
75247;BME280;63844;50.042;19.224;2024-01-10T01:23:26;100781.37;;;-15.42;88.75
75247;BME280;63844;50.042;19.224;2024-01-10T01:25:03;100783.52;;;-15.45;88.72
75247;BME280;63844;50.042;19.224;2024-01-10T01:26:39;100785.41;;;-15.48;88.71
75247;BME280;63844;50.042;19.224;2024-01-10T01:28:16;100785.45;;;-15.49;88.26
75247;BME280;63844;50.042;19.224;2024-01-10T01:29:52;100782.02;;;-15.50;87.91
75247;BME280;63844;50.042;19.224;2024-01-10T01:31:29;100781.61;;;-15.51;88.49
75247;BME280;63844;50.042;19.224;2024-01-10T01:33:06;100781.02;;;-15.57;88.44
75247;BME280;63844;50.042;19.224;2024-01-10T01:34:42;100784.36;;;-15.56;88.25
75247;BME280;63844;50.042;19.224;2024-01-10T01:36:19;100783.04;;;-15.55;87.81
75247;BME280;63844;50.042;19.224;2024-01-10T01:37:55;100787.36;;;-15.56;88.43
75247;BME280;63844;50.042;19.224;2024-01-10T01:39:32;100786.30;;;-15.60;87.85
75247;BME280;63844;50.042;19.224;2024-01-10T01:41:08;100787.05;;;-15.62;88.54
75247;BME280;63844;50.042;19.224;2024-01-10T01:42:45;100786.75;;;-15.61;87.80
75247;BME280;63844;50.042;19.224;2024-01-10T01:44:22;100790.67;;;-15.61;87.53
75247;BME280;63844;50.042;19.224;2024-01-10T01:45:58;100789.65;;;-15.63;87.43
75247;BME280;63844;50.042;19.224;2024-01-10T01:47:35;100786.33;;;-15.67;86.87
75247;BME280;63844;50.042;19.224;2024-01-10T01:49:11;100783.98;;;-15.67;86.76
75247;BME280;63844;50.042;19.224;2024-01-10T01:50:51;100785.48;;;-15.67;87.08
75247;BME280;63844;50.042;19.224;2024-01-10T01:52:29;100786.55;;;-15.69;87.12
75247;BME280;63844;50.042;19.224;2024-01-10T01:54:07;100788.39;;;-15.70;87.72
75247;BME280;63844;50.042;19.224;2024-01-10T01:55:45;100785.70;;;-15.69;87.28
75247;BME280;63844;50.042;19.224;2024-01-10T01:57:22;100785.02;;;-15.69;87.17
75247;BME280;63844;50.042;19.224;2024-01-10T01:58:59;100781.96;;;-15.69;86.87
75247;BME280;63844;50.042;19.224;2024-01-10T02:00:37;100780.89;;;-15.70;87.68
75247;BME280;63844;50.042;19.224;2024-01-10T02:02:15;100774.80;;;-15.70;87.78
75247;BME280;63844;50.042;19.224;2024-01-10T02:03:53;100775.95;;;-15.71;87.54
75247;BME280;63844;50.042;19.224;2024-01-10T02:05:31;100774.11;;;-15.70;87.59
75247;BME280;63844;50.042;19.224;2024-01-10T02:07:07;100772.11;;;-15.70;87.53
75247;BME280;63844;50.042;19.224;2024-01-10T02:08:43;100771.59;;;-15.67;87.60
75247;BME280;63844;50.042;19.224;2024-01-10T02:10:20;100767.70;;;-15.70;86.26
75247;BME280;63844;50.042;19.224;2024-01-10T02:11:57;100768.56;;;-15.72;86.55
75247;BME280;63844;50.042;19.224;2024-01-10T02:13:34;100763.89;;;-15.73;87.05
75247;BME280;63844;50.042;19.224;2024-01-10T02:15:10;100762.38;;;-15.76;87.74
75247;BME280;63844;50.042;19.224;2024-01-10T02:16:47;100760.23;;;-15.75;87.14
75247;BME280;63844;50.042;19.224;2024-01-10T02:18:23;100756.79;;;-15.75;87.16
75247;BME280;63844;50.042;19.224;2024-01-10T02:20:10;100755.51;;;-15.74;87.22
75247;BME280;63844;50.042;19.224;2024-01-10T02:21:47;100754.85;;;-15.77;87.49
75247;BME280;63844;50.042;19.224;2024-01-10T02:23:23;100750.34;;;-15.78;88.19
75247;BME280;63844;50.042;19.224;2024-01-10T02:25:00;100752.82;;;-15.79;87.91
75247;BME280;63844;50.042;19.224;2024-01-10T02:26:36;100751.48;;;-15.81;87.80
75247;BME280;63844;50.042;19.224;2024-01-10T02:28:13;100754.86;;;-15.81;88.08
75247;BME280;63844;50.042;19.224;2024-01-10T02:29:50;100749.92;;;-15.82;87.55
75247;BME280;63844;50.042;19.224;2024-01-10T02:31:26;100751.02;;;-15.80;87.48
75247;BME280;63844;50.042;19.224;2024-01-10T02:33:04;100754.73;;;-15.81;87.84
75247;BME280;63844;50.042;19.224;2024-01-10T02:34:40;100754.11;;;-15.82;87.99
75247;BME280;63844;50.042;19.224;2024-01-10T02:36:16;100758.90;;;-15.84;88.31
75247;BME280;63844;50.042;19.224;2024-01-10T02:37:54;100758.75;;;-15.87;87.99
75247;BME280;63844;50.042;19.224;2024-01-10T02:39:30;100763.34;;;-15.87;87.35
75247;BME280;63844;50.042;19.224;2024-01-10T02:41:07;100757.67;;;-15.88;86.71
75247;BME280;63844;50.042;19.224;2024-01-10T02:42:43;100755.80;;;-15.88;86.20
75247;BME280;63844;50.042;19.224;2024-01-10T02:44:19;100754.49;;;-15.84;86.20
75247;BME280;63844;50.042;19.224;2024-01-10T02:45:56;100754.65;;;-15.85;87.13
75247;BME280;63844;50.042;19.224;2024-01-10T02:47:33;100753.45;;;-15.85;87.05
75247;BME280;63844;50.042;19.224;2024-01-10T02:49:09;100753.58;;;-15.83;86.63
75247;BME280;63844;50.042;19.224;2024-01-10T02:50:45;100754.45;;;-15.82;87.08
75247;BME280;63844;50.042;19.224;2024-01-10T02:52:22;100751.98;;;-15.84;87.11
75247;BME280;63844;50.042;19.224;2024-01-10T02:53:58;100749.45;;;-15.86;86.92
75247;BME280;63844;50.042;19.224;2024-01-10T02:55:35;100750.41;;;-15.87;86.88
75247;BME280;63844;50.042;19.224;2024-01-10T02:57:11;100744.60;;;-15.85;87.30
75247;BME280;63844;50.042;19.224;2024-01-10T02:58:47;100741.92;;;-15.85;87.29
75247;BME280;63844;50.042;19.224;2024-01-10T03:00:24;100739.41;;;-15.84;87.57
75247;BME280;63844;50.042;19.224;2024-01-10T03:02:01;100738.02;;;-15.85;88.09
75247;BME280;63844;50.042;19.224;2024-01-10T03:03:37;100736.16;;;-15.85;87.73
75247;BME280;63844;50.042;19.224;2024-01-10T03:05:14;100732.17;;;-15.86;87.64
75247;BME280;63844;50.042;19.224;2024-01-10T03:06:50;100727.28;;;-15.88;87.59
75247;BME280;63844;50.042;19.224;2024-01-10T03:08:27;100723.94;;;-15.90;87.60
75247;BME280;63844;50.042;19.224;2024-01-10T03:10:03;100727.17;;;-15.90;87.72
75247;BME280;63844;50.042;19.224;2024-01-10T03:11:40;100732.30;;;-15.89;87.85
75247;BME280;63844;50.042;19.224;2024-01-10T03:13:16;100729.64;;;-15.88;87.50
75247;BME280;63844;50.042;19.224;2024-01-10T03:14:52;100731.38;;;-15.85;87.43
75247;BME280;63844;50.042;19.224;2024-01-10T03:16:30;100726.83;;;-15.85;87.18
75247;BME280;63844;50.042;19.224;2024-01-10T03:18:06;100727.42;;;-15.86;87.17
75247;BME280;63844;50.042;19.224;2024-01-10T03:19:43;100729.42;;;-15.87;87.69
75247;BME280;63844;50.042;19.224;2024-01-10T03:21:20;100728.35;;;-15.87;87.34
75247;BME280;63844;50.042;19.224;2024-01-10T03:23:00;100726.30;;;-15.88;87.57
75247;BME280;63844;50.042;19.224;2024-01-10T03:24:37;100721.91;;;-15.87;87.82
75247;BME280;63844;50.042;19.224;2024-01-10T03:26:13;100725.89;;;-15.89;87.95
75247;BME280;63844;50.042;19.224;2024-01-10T03:27:50;100720.15;;;-15.91;88.35
75247;BME280;63844;50.042;19.224;2024-01-10T03:29:26;100725.64;;;-15.90;88.29
75247;BME280;63844;50.042;19.224;2024-01-10T03:31:03;100723.11;;;-15.92;88.14
75247;BME280;63844;50.042;19.224;2024-01-10T03:32:39;100722.34;;;-15.93;88.33
75247;BME280;63844;50.042;19.224;2024-01-10T03:34:16;100723.63;;;-15.94;88.09
75247;BME280;63844;50.042;19.224;2024-01-10T03:35:54;100722.67;;;-15.94;87.45
75247;BME280;63844;50.042;19.224;2024-01-10T03:37:30;100725.77;;;-15.93;87.55
75247;BME280;63844;50.042;19.224;2024-01-10T03:39:07;100721.41;;;-15.94;87.18
75247;BME280;63844;50.042;19.224;2024-01-10T03:40:43;100718.12;;;-15.96;87.64
75247;BME280;63844;50.042;19.224;2024-01-10T03:42:20;100715.73;;;-15.96;87.69
75247;BME280;63844;50.042;19.224;2024-01-10T03:43:56;100716.39;;;-15.99;88.04
75247;BME280;63844;50.042;19.224;2024-01-10T03:45:33;100714.95;;;-16.00;87.82
75247;BME280;63844;50.042;19.224;2024-01-10T03:47:09;100714.29;;;-16.02;88.10
75247;BME280;63844;50.042;19.224;2024-01-10T03:48:45;100719.36;;;-16.05;87.45
75247;BME280;63844;50.042;19.224;2024-01-10T03:50:25;100720.52;;;-16.08;87.30
75247;BME280;63844;50.042;19.224;2024-01-10T03:52:01;100718.55;;;-16.07;87.22
75247;BME280;63844;50.042;19.224;2024-01-10T03:53:37;100718.75;;;-16.07;87.67
75247;BME280;63844;50.042;19.224;2024-01-10T03:55:14;100716.95;;;-16.08;87.62
75247;BME280;63844;50.042;19.224;2024-01-10T03:56:51;100722.15;;;-16.11;87.54
75247;BME280;63844;50.042;19.224;2024-01-10T03:58:28;100721.33;;;-16.11;87.72
75247;BME280;63844;50.042;19.224;2024-01-10T04:00:05;100721.92;;;-16.10;86.74
75247;BME280;63844;50.042;19.224;2024-01-10T04:01:43;100719.91;;;-16.10;87.27
75247;BME280;63844;50.042;19.224;2024-01-10T04:03:19;100719.16;;;-16.11;86.95
75247;BME280;63844;50.042;19.224;2024-01-10T04:04:56;100717.20;;;-16.12;87.59
75247;BME280;63844;50.042;19.224;2024-01-10T04:06:32;100717.39;;;-16.12;87.29
75247;BME280;63844;50.042;19.224;2024-01-10T04:08:09;100717.89;;;-16.12;87.58
75247;BME280;63844;50.042;19.224;2024-01-10T04:09:46;100714.98;;;-16.15;87.20
75247;BME280;63844;50.042;19.224;2024-01-10T04:11:22;100712.09;;;-16.17;86.93
75247;BME280;63844;50.042;19.224;2024-01-10T04:12:58;100707.42;;;-16.16;86.94
75247;BME280;63844;50.042;19.224;2024-01-10T04:14:35;100703.73;;;-16.16;86.82
75247;BME280;63844;50.042;19.224;2024-01-10T04:16:11;100700.06;;;-16.17;86.30
75247;BME280;63844;50.042;19.224;2024-01-10T04:17:48;100693.39;;;-16.18;85.91
75247;BME280;63844;50.042;19.224;2024-01-10T04:19:24;100692.84;;;-16.21;85.49
75247;BME280;63844;50.042;19.224;2024-01-10T04:21:01;100690.86;;;-16.25;85.89
75247;BME280;63844;50.042;19.224;2024-01-10T04:22:37;100690.35;;;-16.23;86.04
75247;BME280;63844;50.042;19.224;2024-01-10T04:24:14;100694.27;;;-16.23;86.96
75247;BME280;63844;50.042;19.224;2024-01-10T04:25:50;100694.15;;;-16.22;87.44
75247;BME280;63844;50.042;19.224;2024-01-10T04:27:27;100696.45;;;-16.21;87.30
75247;BME280;63844;50.042;19.224;2024-01-10T04:29:03;100700.25;;;-16.19;86.54
75247;BME280;63844;50.042;19.224;2024-01-10T04:30:40;100699.15;;;-16.18;85.83
75247;BME280;63844;50.042;19.224;2024-01-10T04:32:16;100703.35;;;-16.19;86.31
75247;BME280;63844;50.042;19.224;2024-01-10T04:33:53;100707.11;;;-16.21;87.17
75247;BME280;63844;50.042;19.224;2024-01-10T04:35:29;100713.62;;;-16.25;87.00
75247;BME280;63844;50.042;19.224;2024-01-10T04:37:05;100715.84;;;-16.24;87.11
75247;BME280;63844;50.042;19.224;2024-01-10T04:38:43;100711.20;;;-16.25;86.89
75247;BME280;63844;50.042;19.224;2024-01-10T04:40:19;100711.10;;;-16.27;87.38
75247;BME280;63844;50.042;19.224;2024-01-10T04:41:55;100708.52;;;-16.30;87.60
75247;BME280;63844;50.042;19.224;2024-01-10T04:43:32;100709.54;;;-16.33;87.86
75247;BME280;63844;50.042;19.224;2024-01-10T04:45:09;100705.55;;;-16.34;87.62
75247;BME280;63844;50.042;19.224;2024-01-10T04:46:45;100712.46;;;-16.32;87.74
75247;BME280;63844;50.042;19.224;2024-01-10T04:48:22;100709.45;;;-16.31;87.73
75247;BME280;63844;50.042;19.224;2024-01-10T04:49:59;100713.17;;;-16.31;87.89
75247;BME280;63844;50.042;19.224;2024-01-10T04:51:35;100709.73;;;-16.30;87.18
75247;BME280;63844;50.042;19.224;2024-01-10T04:53:12;100709.63;;;-16.31;87.33
75247;BME280;63844;50.042;19.224;2024-01-10T04:54:48;100709.54;;;-16.30;87.28
75247;BME280;63844;50.042;19.224;2024-01-10T04:56:26;100712.46;;;-16.32;87.77
75247;BME280;63844;50.042;19.224;2024-01-10T04:58:02;100715.86;;;-16.34;87.53
75247;BME280;63844;50.042;19.224;2024-01-10T04:59:39;100720.92;;;-16.34;87.67
75247;BME280;63844;50.042;19.224;2024-01-10T05:01:15;100721.06;;;-16.35;87.65
75247;BME280;63844;50.042;19.224;2024-01-10T05:02:52;100722.83;;;-16.34;87.20
75247;BME280;63844;50.042;19.224;2024-01-10T05:04:28;100718.75;;;-16.34;87.44
75247;BME280;63844;50.042;19.224;2024-01-10T05:06:05;100721.04;;;-16.35;87.60
75247;BME280;63844;50.042;19.224;2024-01-10T05:07:41;100723.45;;;-16.37;87.53
75247;BME280;63844;50.042;19.224;2024-01-10T05:09:18;100717.06;;;-16.36;87.48
75247;BME280;63844;50.042;19.224;2024-01-10T05:10:54;100714.55;;;-16.36;86.79
75247;BME280;63844;50.042;19.224;2024-01-10T05:12:31;100713.61;;;-16.37;86.61
75247;BME280;63844;50.042;19.224;2024-01-10T05:14:07;100716.27;;;-16.38;86.93
75247;BME280;63844;50.042;19.224;2024-01-10T05:15:44;100717.98;;;-16.38;87.05
75247;BME280;63844;50.042;19.224;2024-01-10T05:17:20;100716.67;;;-16.40;87.50
75247;BME280;63844;50.042;19.224;2024-01-10T05:18:56;100716.77;;;-16.41;87.82
75247;BME280;63844;50.042;19.224;2024-01-10T05:20:33;100710.95;;;-16.44;87.30
75247;BME280;63844;50.042;19.224;2024-01-10T05:22:09;100710.27;;;-16.42;87.19
75247;BME280;63844;50.042;19.224;2024-01-10T05:23:46;100708.96;;;-16.43;87.33
75247;BME280;63844;50.042;19.224;2024-01-10T05:25:22;100713.30;;;-16.44;87.35
75247;BME280;63844;50.042;19.224;2024-01-10T05:26:58;100714.05;;;-16.46;87.45
75247;BME280;63844;50.042;19.224;2024-01-10T05:28:35;100717.00;;;-16.47;87.65
75247;BME280;63844;50.042;19.224;2024-01-10T05:30:11;100715.84;;;-16.47;88.08
75247;BME280;63844;50.042;19.224;2024-01-10T05:31:49;100713.50;;;-16.46;86.53
75247;BME280;63844;50.042;19.224;2024-01-10T05:33:25;100716.65;;;-16.47;86.09
75247;BME280;63844;50.042;19.224;2024-01-10T05:35:01;100709.51;;;-16.45;86.51
75247;BME280;63844;50.042;19.224;2024-01-10T05:36:38;100707.64;;;-16.48;85.95
75247;BME280;63844;50.042;19.224;2024-01-10T05:38:15;100708.31;;;-16.45;86.19
75247;BME280;63844;50.042;19.224;2024-01-10T05:39:51;100708.83;;;-16.47;86.70
75247;BME280;63844;50.042;19.224;2024-01-10T05:41:27;100710.65;;;-16.48;86.61
75247;BME280;63844;50.042;19.224;2024-01-10T05:43:06;100711.27;;;-16.47;85.82
75247;BME280;63844;50.042;19.224;2024-01-10T05:44:43;100712.02;;;-16.46;85.39
75247;BME280;63844;50.042;19.224;2024-01-10T05:46:19;100713.20;;;-16.43;86.04
75247;BME280;63844;50.042;19.224;2024-01-10T05:47:56;100712.86;;;-16.41;86.00
75247;BME280;63844;50.042;19.224;2024-01-10T05:49:33;100708.44;;;-16.41;87.07
75247;BME280;63844;50.042;19.224;2024-01-10T05:51:09;100706.70;;;-16.39;86.62
75247;BME280;63844;50.042;19.224;2024-01-10T05:52:46;100706.53;;;-16.39;86.80
75247;BME280;63844;50.042;19.224;2024-01-10T05:54:23;100709.30;;;-16.41;87.55
75247;BME280;63844;50.042;19.224;2024-01-10T05:56:00;100710.27;;;-16.41;87.80
75247;BME280;63844;50.042;19.224;2024-01-10T05:57:37;100711.33;;;-16.41;87.64
75247;BME280;63844;50.042;19.224;2024-01-10T05:59:13;100714.16;;;-16.39;87.42
75247;BME280;63844;50.042;19.224;2024-01-10T06:00:52;100717.85;;;-16.37;87.58
75247;BME280;63844;50.042;19.224;2024-01-10T06:02:28;100718.58;;;-16.39;87.48
75247;BME280;63844;50.042;19.224;2024-01-10T06:04:05;100720.54;;;-16.38;87.77
75247;BME280;63844;50.042;19.224;2024-01-10T06:05:42;100721.44;;;-16.39;87.40
75247;BME280;63844;50.042;19.224;2024-01-10T06:07:19;100721.73;;;-16.40;88.21
75247;BME280;63844;50.042;19.224;2024-01-10T06:08:57;100723.88;;;-16.41;88.00
75247;BME280;63844;50.042;19.224;2024-01-10T06:10:34;100724.55;;;-16.41;86.80
75247;BME280;63844;50.042;19.224;2024-01-10T06:12:10;100723.24;;;-16.40;87.14
75247;BME280;63844;50.042;19.224;2024-01-10T06:13:47;100718.63;;;-16.38;86.86
75247;BME280;63844;50.042;19.224;2024-01-10T06:15:23;100719.69;;;-16.36;87.28
75247;BME280;63844;50.042;19.224;2024-01-10T06:17:00;100723.10;;;-16.37;87.69
75247;BME280;63844;50.042;19.224;2024-01-10T06:18:37;100725.49;;;-16.39;87.66
75247;BME280;63844;50.042;19.224;2024-01-10T06:20:14;100726.38;;;-16.37;87.49
75247;BME280;63844;50.042;19.224;2024-01-10T06:21:51;100725.97;;;-16.35;87.17
75247;BME280;63844;50.042;19.224;2024-01-10T06:23:28;100724.73;;;-16.34;86.95
75247;BME280;63844;50.042;19.224;2024-01-10T06:25:05;100727.70;;;-16.32;87.58
75247;BME280;63844;50.042;19.224;2024-01-10T06:26:42;100726.17;;;-16.32;87.62
75247;BME280;63844;50.042;19.224;2024-01-10T06:28:18;100729.26;;;-16.31;88.20
75247;BME280;63844;50.042;19.224;2024-01-10T06:29:54;100735.91;;;-16.31;87.99
75247;BME280;63844;50.042;19.224;2024-01-10T06:31:31;100737.93;;;-16.31;87.95
75247;BME280;63844;50.042;19.224;2024-01-10T06:33:07;100740.08;;;-16.29;88.02
75247;BME280;63844;50.042;19.224;2024-01-10T06:34:44;100737.89;;;-16.27;87.72
75247;BME280;63844;50.042;19.224;2024-01-10T06:36:20;100737.28;;;-16.23;87.68
75247;BME280;63844;50.042;19.224;2024-01-10T06:37:56;100737.29;;;-16.23;88.22
75247;BME280;63844;50.042;19.224;2024-01-10T06:39:33;100736.88;;;-16.24;88.37
75247;BME280;63844;50.042;19.224;2024-01-10T06:41:10;100742.48;;;-16.26;88.03
75247;BME280;63844;50.042;19.224;2024-01-10T06:42:46;100740.77;;;-16.24;87.35
75247;BME280;63844;50.042;19.224;2024-01-10T06:44:23;100737.21;;;-16.22;87.32
75247;BME280;63844;50.042;19.224;2024-01-10T06:46:00;100735.70;;;-16.19;87.71
75247;BME280;63844;50.042;19.224;2024-01-10T06:47:36;100730.81;;;-16.16;87.78
75247;BME280;63844;50.042;19.224;2024-01-10T06:49:13;100731.61;;;-16.15;88.14
75247;BME280;63844;50.042;19.224;2024-01-10T06:50:50;100734.31;;;-16.12;88.58
75247;BME280;63844;50.042;19.224;2024-01-10T06:52:26;100730.64;;;-16.11;88.45
75247;BME280;63844;50.042;19.224;2024-01-10T06:54:03;100729.29;;;-16.06;88.52
75247;BME280;63844;50.042;19.224;2024-01-10T06:55:40;100733.98;;;-16.02;88.64
75247;BME280;63844;50.042;19.224;2024-01-10T06:57:16;100733.98;;;-15.99;88.90
75247;BME280;63844;50.042;19.224;2024-01-10T06:58:52;100732.62;;;-15.97;88.59
75247;BME280;63844;50.042;19.224;2024-01-10T07:00:30;100737.98;;;-15.93;88.55
75247;BME280;63844;50.042;19.224;2024-01-10T07:02:07;100742.45;;;-15.94;89.54
75247;BME280;63844;50.042;19.224;2024-01-10T07:03:44;100750.52;;;-15.96;88.75
75247;BME280;63844;50.042;19.224;2024-01-10T07:05:21;100746.98;;;-15.97;87.58
75247;BME280;63844;50.042;19.224;2024-01-10T07:06:58;100746.34;;;-15.95;87.34
75247;BME280;63844;50.042;19.224;2024-01-10T07:08:34;100740.92;;;-15.90;87.55
75247;BME280;63844;50.042;19.224;2024-01-10T07:10:10;100737.72;;;-15.87;87.78
75247;BME280;63844;50.042;19.224;2024-01-10T07:11:48;100738.98;;;-15.83;87.26
75247;BME280;63844;50.042;19.224;2024-01-10T07:13:25;100737.36;;;-15.79;87.85
75247;BME280;63844;50.042;19.224;2024-01-10T07:15:01;100737.53;;;-15.77;88.22
75247;BME280;63844;50.042;19.224;2024-01-10T07:16:39;100738.38;;;-15.74;88.88
75247;BME280;63844;50.042;19.224;2024-01-10T07:18:18;100738.29;;;-15.70;88.71
75247;BME280;63844;50.042;19.224;2024-01-10T07:19:54;100732.63;;;-15.66;88.76
75247;BME280;63844;50.042;19.224;2024-01-10T07:21:32;100732.52;;;-15.63;87.75
75247;BME280;63844;50.042;19.224;2024-01-10T07:23:09;100735.51;;;-15.55;87.69
75247;BME280;63844;50.042;19.224;2024-01-10T07:24:46;100735.83;;;-15.50;88.68
75247;BME280;63844;50.042;19.224;2024-01-10T07:26:23;100736.24;;;-15.47;88.32
75247;BME280;63844;50.042;19.224;2024-01-10T07:27:59;100733.73;;;-15.44;88.33
75247;BME280;63844;50.042;19.224;2024-01-10T07:29:36;100737.65;;;-15.38;88.00
75247;BME280;63844;50.042;19.224;2024-01-10T07:31:12;100732.73;;;-15.33;88.36
75247;BME280;63844;50.042;19.224;2024-01-10T07:32:49;100730.98;;;-15.29;87.52
75247;BME280;63844;50.042;19.224;2024-01-10T07:34:25;100728.45;;;-15.20;87.85
75247;BME280;63844;50.042;19.224;2024-01-10T07:36:02;100721.09;;;-15.17;87.91
75247;BME280;63844;50.042;19.224;2024-01-10T07:37:39;100720.07;;;-15.16;87.77
75247;BME280;63844;50.042;19.224;2024-01-10T07:39:16;100718.85;;;-15.11;87.98
75247;BME280;63844;50.042;19.224;2024-01-10T07:40:54;100717.10;;;-15.07;88.17
75247;BME280;63844;50.042;19.224;2024-01-10T07:42:30;100716.41;;;-15.01;88.78
75247;BME280;63844;50.042;19.224;2024-01-10T07:44:07;100716.01;;;-15.00;87.91
75247;BME280;63844;50.042;19.224;2024-01-10T07:45:45;100715.70;;;-14.91;88.59
75247;BME280;63844;50.042;19.224;2024-01-10T07:47:22;100719.70;;;-14.87;89.32
75247;BME280;63844;50.042;19.224;2024-01-10T07:48:58;100714.72;;;-14.85;89.76
75247;BME280;63844;50.042;19.224;2024-01-10T07:50:36;100712.42;;;-14.79;89.71
75247;BME280;63844;50.042;19.224;2024-01-10T07:52:13;100709.30;;;-14.74;89.52
75247;BME280;63844;50.042;19.224;2024-01-10T07:53:49;100707.37;;;-14.70;88.81
75247;BME280;63844;50.042;19.224;2024-01-10T07:55:26;100707.53;;;-14.62;89.04
75247;BME280;63844;50.042;19.224;2024-01-10T07:57:05;100709.00;;;-14.54;88.61
75247;BME280;63844;50.042;19.224;2024-01-10T07:58:42;100707.01;;;-14.44;89.11
75247;BME280;63844;50.042;19.224;2024-01-10T08:00:19;100709.16;;;-14.37;89.40
75247;BME280;63844;50.042;19.224;2024-01-10T08:01:57;100712.10;;;-14.34;89.98
75247;BME280;63844;50.042;19.224;2024-01-10T08:03:34;100712.23;;;-14.31;90.01
75247;BME280;63844;50.042;19.224;2024-01-10T08:05:11;100707.35;;;-14.28;89.87
75247;BME280;63844;50.042;19.224;2024-01-10T08:06:48;100708.08;;;-14.21;89.84
75247;BME280;63844;50.042;19.224;2024-01-10T08:08:25;100709.27;;;-14.15;90.17
75247;BME280;63844;50.042;19.224;2024-01-10T08:10:01;100707.35;;;-14.11;90.02
75247;BME280;63844;50.042;19.224;2024-01-10T08:11:38;100706.69;;;-14.07;90.39
75247;BME280;63844;50.042;19.224;2024-01-10T08:13:15;100707.10;;;-14.04;89.72